sensor_id;sensor_type;location;lat;lon;timestamp;temperature;humidity
26503;DHT22;14177;51.520;6.764;2022-07-29T00:01:03;20.10;57.30
26503;DHT22;14177;51.520;6.764;2022-07-29T00:03:31;20.10;57.30
26503;DHT22;14177;51.520;6.764;2022-07-29T00:05:58;20.10;57.40
26503;DHT22;14177;51.520;6.764;2022-07-29T00:08:26;20.10;57.40
26503;DHT22;14177;51.520;6.764;2022-07-29T00:10:53;20.10;57.50
26503;DHT22;14177;51.520;6.764;2022-07-29T00:13:20;20.00;57.50
26503;DHT22;14177;51.520;6.764;2022-07-29T00:15:58;20.00;57.60
26503;DHT22;14177;51.520;6.764;2022-07-29T00:18:31;20.00;57.40
26503;DHT22;14177;51.520;6.764;2022-07-29T00:20:58;20.00;57.60
26503;DHT22;14177;51.520;6.764;2022-07-29T00:23:26;20.00;57.50
26503;DHT22;14177;51.520;6.764;2022-07-29T00:25:53;20.00;57.60
26503;DHT22;14177;51.520;6.764;2022-07-29T00:28:20;20.00;57.60
26503;DHT22;14177;51.520;6.764;2022-07-29T00:30:47;20.00;57.70
26503;DHT22;14177;51.520;6.764;2022-07-29T00:33:14;20.00;58.40
26503;DHT22;14177;51.520;6.764;2022-07-29T00:35:41;20.00;57.80
26503;DHT22;14177;51.520;6.764;2022-07-29T00:38:12;19.90;57.80
26503;DHT22;14177;51.520;6.764;2022-07-29T00:40:44;20.00;57.80
26503;DHT22;14177;51.520;6.764;2022-07-29T00:43:12;19.90;57.80
26503;DHT22;14177;51.520;6.764;2022-07-29T00:45:41;19.90;57.90
26503;DHT22;14177;51.520;6.764;2022-07-29T00:48:09;19.90;57.90
26503;DHT22;14177;51.520;6.764;2022-07-29T00:50:37;19.80;57.90
26503;DHT22;14177;51.520;6.764;2022-07-29T00:53:08;19.90;58.20
26503;DHT22;14177;51.520;6.764;2022-07-29T00:55:37;19.80;58.10
26503;DHT22;14177;51.520;6.764;2022-07-29T00:58:06;19.80;58.20
26503;DHT22;14177;51.520;6.764;2022-07-29T01:00:33;19.80;58.20
26503;DHT22;14177;51.520;6.764;2022-07-29T01:03:00;19.80;58.30
26503;DHT22;14177;51.520;6.764;2022-07-29T01:05:28;19.80;58.40
26503;DHT22;14177;51.520;6.764;2022-07-29T01:08:16;19.80;58.30
26503;DHT22;14177;51.520;6.764;2022-07-29T01:10:44;19.70;58.40
26503;DHT22;14177;51.520;6.764;2022-07-29T01:13:14;19.70;58.60
26503;DHT22;14177;51.520;6.764;2022-07-29T01:15:46;19.60;58.70
26503;DHT22;14177;51.520;6.764;2022-07-29T01:18:37;19.60;58.80
26503;DHT22;14177;51.520;6.764;2022-07-29T01:22:02;19.70;59.10
26503;DHT22;14177;51.520;6.764;2022-07-29T01:24:49;19.60;59.20
26503;DHT22;14177;51.520;6.764;2022-07-29T01:27:51;19.60;59.30
26503;DHT22;14177;51.520;6.764;2022-07-29T01:30:38;19.60;59.30
26503;DHT22;14177;51.520;6.764;2022-07-29T01:33:11;19.50;59.30
26503;DHT22;14177;51.520;6.764;2022-07-29T01:36:17;19.50;59.30
26503;DHT22;14177;51.520;6.764;2022-07-29T01:39:02;19.50;59.60
26503;DHT22;14177;51.520;6.764;2022-07-29T01:41:36;19.50;59.60
26503;DHT22;14177;51.520;6.764;2022-07-29T01:44:14;19.50;59.80
26503;DHT22;14177;51.520;6.764;2022-07-29T01:46:52;19.50;59.80
26503;DHT22;14177;51.520;6.764;2022-07-29T01:49:33;19.50;59.70
26503;DHT22;14177;51.520;6.764;2022-07-29T01:52:07;19.50;59.90
26503;DHT22;14177;51.520;6.764;2022-07-29T01:54:56;19.50;60.00
26503;DHT22;14177;51.520;6.764;2022-07-29T01:57:29;19.40;60.20
26503;DHT22;14177;51.520;6.764;2022-07-29T01:59:58;19.40;60.30
26503;DHT22;14177;51.520;6.764;2022-07-29T02:02:40;19.40;60.40
26503;DHT22;14177;51.520;6.764;2022-07-29T02:05:12;19.40;60.20
26503;DHT22;14177;51.520;6.764;2022-07-29T02:07:43;19.40;60.40
26503;DHT22;14177;51.520;6.764;2022-07-29T02:10:12;19.40;60.50
26503;DHT22;14177;51.520;6.764;2022-07-29T02:12:42;19.40;60.70
26503;DHT22;14177;51.520;6.764;2022-07-29T02:15:16;19.40;60.90
26503;DHT22;14177;51.520;6.764;2022-07-29T02:17:58;19.30;61.00
26503;DHT22;14177;51.520;6.764;2022-07-29T02:20:29;19.30;61.10
26503;DHT22;14177;51.520;6.764;2022-07-29T02:22:58;19.30;61.20
26503;DHT22;14177;51.520;6.764;2022-07-29T02:25:27;19.30;61.50
26503;DHT22;14177;51.520;6.764;2022-07-29T02:28:05;19.20;62.10
26503;DHT22;14177;51.520;6.764;2022-07-29T02:30:36;19.20;61.60
26503;DHT22;14177;51.520;6.764;2022-07-29T02:33:08;19.20;61.80
26503;DHT22;14177;51.520;6.764;2022-07-29T02:35:40;19.20;61.80
26503;DHT22;14177;51.520;6.764;2022-07-29T02:38:13;19.20;62.00
26503;DHT22;14177;51.520;6.764;2022-07-29T02:41:05;19.10;62.40
26503;DHT22;14177;51.520;6.764;2022-07-29T02:43:40;19.10;62.70
26503;DHT22;14177;51.520;6.764;2022-07-29T02:46:14;19.00;63.00
26503;DHT22;14177;51.520;6.764;2022-07-29T02:51:43;18.90;63.10
26503;DHT22;14177;51.520;6.764;2022-07-29T02:54:25;18.90;63.00
26503;DHT22;14177;51.520;6.764;2022-07-29T02:56:58;18.90;63.20
26503;DHT22;14177;51.520;6.764;2022-07-29T02:59:30;18.90;63.40
26503;DHT22;14177;51.520;6.764;2022-07-29T03:02:02;18.90;63.40
26503;DHT22;14177;51.520;6.764;2022-07-29T03:04:32;18.80;63.80
26503;DHT22;14177;51.520;6.764;2022-07-29T03:07:01;18.80;64.30
26503;DHT22;14177;51.520;6.764;2022-07-29T03:09:29;18.80;64.50
26503;DHT22;14177;51.520;6.764;2022-07-29T03:11:57;18.70;65.00
26503;DHT22;14177;51.520;6.764;2022-07-29T03:14:24;18.70;65.80
26503;DHT22;14177;51.520;6.764;2022-07-29T03:16:53;18.70;66.40
26503;DHT22;14177;51.520;6.764;2022-07-29T03:19:20;18.60;67.50
26503;DHT22;14177;51.520;6.764;2022-07-29T03:21:48;18.60;67.80
26503;DHT22;14177;51.520;6.764;2022-07-29T03:24:32;18.60;68.10
26503;DHT22;14177;51.520;6.764;2022-07-29T03:27:02;18.50;68.40
26503;DHT22;14177;51.520;6.764;2022-07-29T03:29:31;18.50;68.70
26503;DHT22;14177;51.520;6.764;2022-07-29T03:32:03;18.40;68.70
26503;DHT22;14177;51.520;6.764;2022-07-29T03:34:35;18.40;68.90
26503;DHT22;14177;51.520;6.764;2022-07-29T03:37:04;18.30;69.70
26503;DHT22;14177;51.520;6.764;2022-07-29T03:39:36;18.30;69.50
26503;DHT22;14177;51.520;6.764;2022-07-29T03:42:08;18.30;69.90
26503;DHT22;14177;51.520;6.764;2022-07-29T03:44:39;18.20;70.20
26503;DHT22;14177;51.520;6.764;2022-07-29T03:47:09;18.20;70.50
26503;DHT22;14177;51.520;6.764;2022-07-29T03:49:38;18.10;70.60
26503;DHT22;14177;51.520;6.764;2022-07-29T03:52:06;18.10;70.80
26503;DHT22;14177;51.520;6.764;2022-07-29T03:54:34;18.10;70.90
26503;DHT22;14177;51.520;6.764;2022-07-29T03:57:02;18.10;70.80
26503;DHT22;14177;51.520;6.764;2022-07-29T03:59:33;18.10;70.90
26503;DHT22;14177;51.520;6.764;2022-07-29T04:02:04;18.10;70.80
26503;DHT22;14177;51.520;6.764;2022-07-29T04:04:33;18.00;71.20
26503;DHT22;14177;51.520;6.764;2022-07-29T04:07:02;18.00;71.50
26503;DHT22;14177;51.520;6.764;2022-07-29T04:09:30;17.90;71.50
26503;DHT22;14177;51.520;6.764;2022-07-29T04:11:57;17.90;71.60
26503;DHT22;14177;51.520;6.764;2022-07-29T04:14:31;17.90;71.60
26503;DHT22;14177;51.520;6.764;2022-07-29T04:17:00;18.00;71.30
26503;DHT22;14177;51.520;6.764;2022-07-29T04:19:28;18.00;71.80
26503;DHT22;14177;51.520;6.764;2022-07-29T04:21:56;18.00;72.50
26503;DHT22;14177;51.520;6.764;2022-07-29T04:24:23;18.00;74.00
26503;DHT22;14177;51.520;6.764;2022-07-29T04:26:51;18.10;75.30
26503;DHT22;14177;51.520;6.764;2022-07-29T04:29:19;18.00;76.50
26503;DHT22;14177;51.520;6.764;2022-07-29T04:31:46;17.90;77.30
26503;DHT22;14177;51.520;6.764;2022-07-29T04:34:14;17.90;78.20
26503;DHT22;14177;51.520;6.764;2022-07-29T04:36:42;17.80;78.90
26503;DHT22;14177;51.520;6.764;2022-07-29T04:39:09;17.70;80.40
26503;DHT22;14177;51.520;6.764;2022-07-29T04:41:36;17.70;81.10
26503;DHT22;14177;51.520;6.764;2022-07-29T04:44:04;17.50;81.40
26503;DHT22;14177;51.520;6.764;2022-07-29T04:46:33;17.50;82.10
26503;DHT22;14177;51.520;6.764;2022-07-29T04:49:01;17.40;82.40
26503;DHT22;14177;51.520;6.764;2022-07-29T04:51:28;17.40;82.10
26503;DHT22;14177;51.520;6.764;2022-07-29T04:53:55;17.30;82.20
26503;DHT22;14177;51.520;6.764;2022-07-29T04:56:22;17.20;82.50
26503;DHT22;14177;51.520;6.764;2022-07-29T04:58:51;17.20;82.90
26503;DHT22;14177;51.520;6.764;2022-07-29T05:01:19;17.10;83.50
26503;DHT22;14177;51.520;6.764;2022-07-29T05:03:46;17.10;83.80
26503;DHT22;14177;51.520;6.764;2022-07-29T05:06:13;17.00;83.70
26503;DHT22;14177;51.520;6.764;2022-07-29T05:08:40;17.00;84.30
26503;DHT22;14177;51.520;6.764;2022-07-29T05:11:08;16.90;84.70
26503;DHT22;14177;51.520;6.764;2022-07-29T05:13:39;16.80;84.90
26503;DHT22;14177;51.520;6.764;2022-07-29T05:16:13;16.90;85.00
26503;DHT22;14177;51.520;6.764;2022-07-29T05:18:41;16.80;85.50
26503;DHT22;14177;51.520;6.764;2022-07-29T05:21:09;16.80;85.80
26503;DHT22;14177;51.520;6.764;2022-07-29T05:23:36;16.80;85.70
26503;DHT22;14177;51.520;6.764;2022-07-29T05:26:03;16.80;85.60
26503;DHT22;14177;51.520;6.764;2022-07-29T05:28:33;16.80;85.30
26503;DHT22;14177;51.520;6.764;2022-07-29T05:31:01;16.80;85.40
26503;DHT22;14177;51.520;6.764;2022-07-29T05:33:29;16.80;85.30
26503;DHT22;14177;51.520;6.764;2022-07-29T05:36:04;16.80;85.70
26503;DHT22;14177;51.520;6.764;2022-07-29T05:38:34;16.80;85.70
26503;DHT22;14177;51.520;6.764;2022-07-29T05:41:03;16.80;86.00
26503;DHT22;14177;51.520;6.764;2022-07-29T05:43:31;16.70;86.00
26503;DHT22;14177;51.520;6.764;2022-07-29T05:45:59;16.70;85.80
26503;DHT22;14177;51.520;6.764;2022-07-29T05:48:28;16.70;86.20
26503;DHT22;14177;51.520;6.764;2022-07-29T05:50:56;16.60;86.30
26503;DHT22;14177;51.520;6.764;2022-07-29T05:53:23;16.60;86.50
26503;DHT22;14177;51.520;6.764;2022-07-29T05:55:50;16.50;86.40
26503;DHT22;14177;51.520;6.764;2022-07-29T05:58:18;16.50;86.20
26503;DHT22;14177;51.520;6.764;2022-07-29T06:00:45;16.40;85.80
26503;DHT22;14177;51.520;6.764;2022-07-29T06:03:13;16.50;86.00
26503;DHT22;14177;51.520;6.764;2022-07-29T06:05:41;16.50;86.10
26503;DHT22;14177;51.520;6.764;2022-07-29T06:08:08;16.50;86.30
26503;DHT22;14177;51.520;6.764;2022-07-29T06:10:35;16.50;86.50
26503;DHT22;14177;51.520;6.764;2022-07-29T06:13:03;16.60;86.40
26503;DHT22;14177;51.520;6.764;2022-07-29T06:15:31;16.60;86.10
26503;DHT22;14177;51.520;6.764;2022-07-29T06:17:58;16.70;86.10
26503;DHT22;14177;51.520;6.764;2022-07-29T06:20:29;16.80;85.80
26503;DHT22;14177;51.520;6.764;2022-07-29T06:22:59;16.80;85.80
26503;DHT22;14177;51.520;6.764;2022-07-29T06:25:27;16.80;86.10
26503;DHT22;14177;51.520;6.764;2022-07-29T06:27:57;16.80;85.80
26503;DHT22;14177;51.520;6.764;2022-07-29T06:30:25;16.80;85.70
26503;DHT22;14177;51.520;6.764;2022-07-29T06:32:53;16.80;85.90
26503;DHT22;14177;51.520;6.764;2022-07-29T06:35:20;16.80;86.00
26503;DHT22;14177;51.520;6.764;2022-07-29T06:38:15;16.90;86.40
26503;DHT22;14177;51.520;6.764;2022-07-29T06:41:15;16.90;86.10
26503;DHT22;14177;51.520;6.764;2022-07-29T06:43:44;17.00;86.20
26503;DHT22;14177;51.520;6.764;2022-07-29T06:46:21;17.10;86.20
26503;DHT22;14177;51.520;6.764;2022-07-29T06:48:49;17.10;86.40
26503;DHT22;14177;51.520;6.764;2022-07-29T06:51:19;17.10;86.20
26503;DHT22;14177;51.520;6.764;2022-07-29T06:53:50;17.20;86.10
26503;DHT22;14177;51.520;6.764;2022-07-29T06:56:32;17.20;86.70
26503;DHT22;14177;51.520;6.764;2022-07-29T06:59:07;17.10;86.80
26503;DHT22;14177;51.520;6.764;2022-07-29T07:01:41;17.10;86.60
26503;DHT22;14177;51.520;6.764;2022-07-29T07:04:10;17.00;86.30
26503;DHT22;14177;51.520;6.764;2022-07-29T07:06:37;17.00;86.50
26503;DHT22;14177;51.520;6.764;2022-07-29T07:09:04;17.00;86.60
26503;DHT22;14177;51.520;6.764;2022-07-29T07:11:32;17.00;86.60
26503;DHT22;14177;51.520;6.764;2022-07-29T07:13:59;17.00;86.30
26503;DHT22;14177;51.520;6.764;2022-07-29T07:16:30;17.00;86.00
26503;DHT22;14177;51.520;6.764;2022-07-29T07:18:58;17.00;85.40
26503;DHT22;14177;51.520;6.764;2022-07-29T07:21:24;17.00;86.10
26503;DHT22;14177;51.520;6.764;2022-07-29T07:23:55;17.00;86.20
26503;DHT22;14177;51.520;6.764;2022-07-29T07:26:22;17.00;86.40
26503;DHT22;14177;51.520;6.764;2022-07-29T07:28:49;17.00;86.20
26503;DHT22;14177;51.520;6.764;2022-07-29T07:31:17;17.20;86.60
26503;DHT22;14177;51.520;6.764;2022-07-29T07:33:44;17.20;86.80
26503;DHT22;14177;51.520;6.764;2022-07-29T07:36:11;17.20;86.80
26503;DHT22;14177;51.520;6.764;2022-07-29T07:38:38;17.30;86.90
26503;DHT22;14177;51.520;6.764;2022-07-29T07:41:05;17.30;86.70
26503;DHT22;14177;51.520;6.764;2022-07-29T07:43:32;17.30;86.40
26503;DHT22;14177;51.520;6.764;2022-07-29T07:45:59;17.40;86.30
26503;DHT22;14177;51.520;6.764;2022-07-29T07:48:26;17.40;86.60
26503;DHT22;14177;51.520;6.764;2022-07-29T07:50:54;17.50;86.60
26503;DHT22;14177;51.520;6.764;2022-07-29T07:53:21;17.60;86.70
26503;DHT22;14177;51.520;6.764;2022-07-29T07:55:48;17.60;86.50
26503;DHT22;14177;51.520;6.764;2022-07-29T07:58:35;17.70;85.90
26503;DHT22;14177;51.520;6.764;2022-07-29T08:01:02;17.70;85.50
26503;DHT22;14177;51.520;6.764;2022-07-29T08:03:30;17.70;85.50
26503;DHT22;14177;51.520;6.764;2022-07-29T08:05:57;17.80;85.70
26503;DHT22;14177;51.520;6.764;2022-07-29T08:08:24;17.80;85.90
26503;DHT22;14177;51.520;6.764;2022-07-29T08:10:51;17.80;85.50
26503;DHT22;14177;51.520;6.764;2022-07-29T08:13:28;17.80;85.70
26503;DHT22;14177;51.520;6.764;2022-07-29T08:15:57;17.80;85.40
26503;DHT22;14177;51.520;6.764;2022-07-29T08:18:28;17.80;85.70
26503;DHT22;14177;51.520;6.764;2022-07-29T08:20:57;17.80;85.60
26503;DHT22;14177;51.520;6.764;2022-07-29T08:23:24;17.80;85.60
26503;DHT22;14177;51.520;6.764;2022-07-29T08:26:12;17.80;85.70
26503;DHT22;14177;51.520;6.764;2022-07-29T08:28:42;17.80;85.90
26503;DHT22;14177;51.520;6.764;2022-07-29T08:31:12;17.90;86.10
26503;DHT22;14177;51.520;6.764;2022-07-29T08:33:40;17.90;85.90
26503;DHT22;14177;51.520;6.764;2022-07-29T08:36:07;17.80;86.20
26503;DHT22;14177;51.520;6.764;2022-07-29T08:38:35;17.90;86.60
26503;DHT22;14177;51.520;6.764;2022-07-29T08:41:02;17.90;86.90
26503;DHT22;14177;51.520;6.764;2022-07-29T08:43:29;17.80;87.00
26503;DHT22;14177;51.520;6.764;2022-07-29T08:45:56;17.80;87.40
26503;DHT22;14177;51.520;6.764;2022-07-29T08:48:24;17.80;87.50
26503;DHT22;14177;51.520;6.764;2022-07-29T08:50:55;17.80;87.70
26503;DHT22;14177;51.520;6.764;2022-07-29T08:53:26;17.80;88.10
26503;DHT22;14177;51.520;6.764;2022-07-29T08:55:55;17.90;88.50
26503;DHT22;14177;51.520;6.764;2022-07-29T08:58:24;17.90;89.00
26503;DHT22;14177;51.520;6.764;2022-07-29T09:00:55;17.90;88.60
26503;DHT22;14177;51.520;6.764;2022-07-29T09:03:26;17.90;88.80
26503;DHT22;14177;51.520;6.764;2022-07-29T09:05:58;17.90;88.90
26503;DHT22;14177;51.520;6.764;2022-07-29T09:08:26;18.00;89.50
26503;DHT22;14177;51.520;6.764;2022-07-29T09:10:54;18.10;89.90
26503;DHT22;14177;51.520;6.764;2022-07-29T09:13:25;18.10;90.00
26503;DHT22;14177;51.520;6.764;2022-07-29T09:15:53;18.20;90.20
26503;DHT22;14177;51.520;6.764;2022-07-29T09:18:43;18.40;90.20
26503;DHT22;14177;51.520;6.764;2022-07-29T09:21:15;18.50;89.50
26503;DHT22;14177;51.520;6.764;2022-07-29T09:24:13;18.60;89.30
26503;DHT22;14177;51.520;6.764;2022-07-29T09:26:42;18.70;88.20
26503;DHT22;14177;51.520;6.764;2022-07-29T09:29:22;18.80;88.30
26503;DHT22;14177;51.520;6.764;2022-07-29T09:31:53;18.90;88.20
26503;DHT22;14177;51.520;6.764;2022-07-29T09:34:26;19.00;86.90
26503;DHT22;14177;51.520;6.764;2022-07-29T09:36:55;19.00;85.90
26503;DHT22;14177;51.520;6.764;2022-07-29T09:39:33;19.00;85.40
26503;DHT22;14177;51.520;6.764;2022-07-29T09:42:04;19.10;85.90
26503;DHT22;14177;51.520;6.764;2022-07-29T09:44:46;19.20;85.50
26503;DHT22;14177;51.520;6.764;2022-07-29T09:47:17;19.20;85.10
26503;DHT22;14177;51.520;6.764;2022-07-29T09:49:58;19.30;83.60
26503;DHT22;14177;51.520;6.764;2022-07-29T09:52:29;19.30;84.10
26503;DHT22;14177;51.520;6.764;2022-07-29T09:55:05;19.40;82.90
26503;DHT22;14177;51.520;6.764;2022-07-29T09:57:33;19.50;82.40
26503;DHT22;14177;51.520;6.764;2022-07-29T10:02:39;19.60;82.10
26503;DHT22;14177;51.520;6.764;2022-07-29T10:05:23;19.70;81.50
26503;DHT22;14177;51.520;6.764;2022-07-29T10:08:02;19.80;82.00
26503;DHT22;14177;51.520;6.764;2022-07-29T10:10:31;19.90;80.30
26503;DHT22;14177;51.520;6.764;2022-07-29T10:15:39;20.00;79.70
26503;DHT22;14177;51.520;6.764;2022-07-29T10:18:13;20.00;79.30
26503;DHT22;14177;51.520;6.764;2022-07-29T10:20:41;20.00;78.40
26503;DHT22;14177;51.520;6.764;2022-07-29T10:23:09;20.00;79.00
26503;DHT22;14177;51.520;6.764;2022-07-29T10:25:36;20.00;78.70
26503;DHT22;14177;51.520;6.764;2022-07-29T10:28:05;20.00;78.30
26503;DHT22;14177;51.520;6.764;2022-07-29T10:30:33;20.00;78.70
26503;DHT22;14177;51.520;6.764;2022-07-29T10:33:35;20.10;79.40
26503;DHT22;14177;51.520;6.764;2022-07-29T10:42:54;20.30;77.90
26503;DHT22;14177;51.520;6.764;2022-07-29T10:45:26;20.40;77.30
26503;DHT22;14177;51.520;6.764;2022-07-29T10:48:05;20.50;77.30
26503;DHT22;14177;51.520;6.764;2022-07-29T10:50:52;20.60;77.80
26503;DHT22;14177;51.520;6.764;2022-07-29T10:53:22;20.80;77.80
26503;DHT22;14177;51.520;6.764;2022-07-29T10:56:26;20.90;77.90
26503;DHT22;14177;51.520;6.764;2022-07-29T11:01:48;21.40;75.90
26503;DHT22;14177;51.520;6.764;2022-07-29T11:07:14;22.10;74.70
26503;DHT22;14177;51.520;6.764;2022-07-29T11:09:43;22.60;75.30
26503;DHT22;14177;51.520;6.764;2022-07-29T11:15:06;23.40;71.30
26503;DHT22;14177;51.520;6.764;2022-07-29T11:20:43;24.00;67.40
26503;DHT22;14177;51.520;6.764;2022-07-29T11:23:26;24.40;67.40
26503;DHT22;14177;51.520;6.764;2022-07-29T11:26:18;24.80;66.20
26503;DHT22;14177;51.520;6.764;2022-07-29T11:28:54;25.00;65.30
26503;DHT22;14177;51.520;6.764;2022-07-29T11:31:45;25.30;64.60
26503;DHT22;14177;51.520;6.764;2022-07-29T11:39:38;25.60;63.00
26503;DHT22;14177;51.520;6.764;2022-07-29T11:45:18;25.60;63.50
26503;DHT22;14177;51.520;6.764;2022-07-29T11:48:07;25.50;64.00
26503;DHT22;14177;51.520;6.764;2022-07-29T11:50:57;25.30;63.70
26503;DHT22;14177;51.520;6.764;2022-07-29T11:53:25;25.20;64.00
26503;DHT22;14177;51.520;6.764;2022-07-29T11:55:59;25.20;64.20
26503;DHT22;14177;51.520;6.764;2022-07-29T11:58:28;25.00;64.00
26503;DHT22;14177;51.520;6.764;2022-07-29T12:00:56;24.90;64.30
26503;DHT22;14177;51.520;6.764;2022-07-29T12:03:30;24.90;64.40
26503;DHT22;14177;51.520;6.764;2022-07-29T12:06:11;24.80;63.40
26503;DHT22;14177;51.520;6.764;2022-07-29T12:08:44;24.70;63.70
26503;DHT22;14177;51.520;6.764;2022-07-29T12:11:19;24.70;64.10
26503;DHT22;14177;51.520;6.764;2022-07-29T12:13:50;24.60;65.00
26503;DHT22;14177;51.520;6.764;2022-07-29T12:16:19;24.50;64.60
26503;DHT22;14177;51.520;6.764;2022-07-29T12:18:59;24.40;63.90
26503;DHT22;14177;51.520;6.764;2022-07-29T12:21:44;24.40;64.90
26503;DHT22;14177;51.520;6.764;2022-07-29T12:24:25;24.30;65.10
26503;DHT22;14177;51.520;6.764;2022-07-29T12:26:54;24.30;64.70
26503;DHT22;14177;51.520;6.764;2022-07-29T12:29:24;24.20;65.40
26503;DHT22;14177;51.520;6.764;2022-07-29T12:32:02;24.10;65.50
26503;DHT22;14177;51.520;6.764;2022-07-29T12:34:31;24.00;65.70
26503;DHT22;14177;51.520;6.764;2022-07-29T12:36:59;24.00;65.50
26503;DHT22;14177;51.520;6.764;2022-07-29T12:39:27;23.90;66.00
26503;DHT22;14177;51.520;6.764;2022-07-29T12:41:54;23.90;65.70
26503;DHT22;14177;51.520;6.764;2022-07-29T12:44:50;23.80;65.40
26503;DHT22;14177;51.520;6.764;2022-07-29T12:47:19;23.70;65.80
26503;DHT22;14177;51.520;6.764;2022-07-29T12:49:47;23.60;65.70
26503;DHT22;14177;51.520;6.764;2022-07-29T12:54:58;23.70;65.90
26503;DHT22;14177;51.520;6.764;2022-07-29T12:57:26;23.70;66.30
26503;DHT22;14177;51.520;6.764;2022-07-29T13:00:08;23.70;66.00
26503;DHT22;14177;51.520;6.764;2022-07-29T13:02:38;23.80;65.90
26503;DHT22;14177;51.520;6.764;2022-07-29T13:05:08;23.80;65.70
26503;DHT22;14177;51.520;6.764;2022-07-29T13:07:36;23.90;65.60
26503;DHT22;14177;51.520;6.764;2022-07-29T13:10:22;23.90;64.80
26503;DHT22;14177;51.520;6.764;2022-07-29T13:13:08;23.90;64.40
26503;DHT22;14177;51.520;6.764;2022-07-29T13:15:42;23.90;65.20
26503;DHT22;14177;51.520;6.764;2022-07-29T13:18:27;23.90;64.90
26503;DHT22;14177;51.520;6.764;2022-07-29T13:20:56;23.90;64.90
26503;DHT22;14177;51.520;6.764;2022-07-29T13:23:24;24.10;64.50
26503;DHT22;14177;51.520;6.764;2022-07-29T13:25:50;24.20;63.80
26503;DHT22;14177;51.520;6.764;2022-07-29T13:28:19;24.20;62.50
26503;DHT22;14177;51.520;6.764;2022-07-29T13:30:48;24.30;62.90
26503;DHT22;14177;51.520;6.764;2022-07-29T13:33:15;24.20;61.90
26503;DHT22;14177;51.520;6.764;2022-07-29T13:35:41;24.20;61.50
26503;DHT22;14177;51.520;6.764;2022-07-29T13:38:09;24.20;60.80
26503;DHT22;14177;51.520;6.764;2022-07-29T13:40:36;24.20;60.90
26503;DHT22;14177;51.520;6.764;2022-07-29T13:43:03;24.20;61.60
26503;DHT22;14177;51.520;6.764;2022-07-29T13:45:30;24.20;60.30
26503;DHT22;14177;51.520;6.764;2022-07-29T13:47:57;24.30;61.10
26503;DHT22;14177;51.520;6.764;2022-07-29T13:50:24;24.30;60.20
26503;DHT22;14177;51.520;6.764;2022-07-29T13:52:51;24.40;60.10
26503;DHT22;14177;51.520;6.764;2022-07-29T13:55:18;24.50;60.30
26503;DHT22;14177;51.520;6.764;2022-07-29T13:57:46;24.70;60.00
26503;DHT22;14177;51.520;6.764;2022-07-29T14:00:14;24.90;59.40
26503;DHT22;14177;51.520;6.764;2022-07-29T14:02:42;25.20;58.30
26503;DHT22;14177;51.520;6.764;2022-07-29T14:05:13;25.40;56.20
26503;DHT22;14177;51.520;6.764;2022-07-29T14:07:43;25.50;56.10
26503;DHT22;14177;51.520;6.764;2022-07-29T14:10:10;25.40;55.90
26503;DHT22;14177;51.520;6.764;2022-07-29T14:12:37;25.40;55.90
26503;DHT22;14177;51.520;6.764;2022-07-29T14:15:05;25.40;55.90
26503;DHT22;14177;51.520;6.764;2022-07-29T14:17:32;25.60;54.40
26503;DHT22;14177;51.520;6.764;2022-07-29T14:19:58;25.80;53.30
26503;DHT22;14177;51.520;6.764;2022-07-29T14:22:25;25.90;53.10
26503;DHT22;14177;51.520;6.764;2022-07-29T14:24:52;26.10;52.60
26503;DHT22;14177;51.520;6.764;2022-07-29T14:27:19;26.30;52.60
26503;DHT22;14177;51.520;6.764;2022-07-29T14:30:05;26.60;52.60
26503;DHT22;14177;51.520;6.764;2022-07-29T14:32:32;26.80;51.80
26503;DHT22;14177;51.520;6.764;2022-07-29T14:34:59;27.00;51.50
26503;DHT22;14177;51.520;6.764;2022-07-29T14:37:26;27.20;51.50
26503;DHT22;14177;51.520;6.764;2022-07-29T14:39:53;27.40;51.70
26503;DHT22;14177;51.520;6.764;2022-07-29T14:42:20;27.60;51.20
26503;DHT22;14177;51.520;6.764;2022-07-29T14:44:47;27.80;51.80
26503;DHT22;14177;51.520;6.764;2022-07-29T14:47:15;27.90;50.30
26503;DHT22;14177;51.520;6.764;2022-07-29T14:49:42;28.00;49.90
26503;DHT22;14177;51.520;6.764;2022-07-29T14:52:09;28.00;49.80
26503;DHT22;14177;51.520;6.764;2022-07-29T14:54:36;28.00;49.60
26503;DHT22;14177;51.520;6.764;2022-07-29T14:57:03;28.10;49.20
26503;DHT22;14177;51.520;6.764;2022-07-29T14:59:30;28.10;48.80
26503;DHT22;14177;51.520;6.764;2022-07-29T15:01:57;28.20;48.50
26503;DHT22;14177;51.520;6.764;2022-07-29T15:04:24;28.30;48.40
26503;DHT22;14177;51.520;6.764;2022-07-29T15:06:52;28.30;48.40
26503;DHT22;14177;51.520;6.764;2022-07-29T15:09:19;28.40;48.10
26503;DHT22;14177;51.520;6.764;2022-07-29T15:11:45;28.40;47.20
26503;DHT22;14177;51.520;6.764;2022-07-29T15:14:12;28.20;47.40
26503;DHT22;14177;51.520;6.764;2022-07-29T15:16:39;28.10;47.50
26503;DHT22;14177;51.520;6.764;2022-07-29T15:19:10;28.00;47.30
26503;DHT22;14177;51.520;6.764;2022-07-29T15:21:37;28.00;47.60
26503;DHT22;14177;51.520;6.764;2022-07-29T15:24:15;28.00;47.10
26503;DHT22;14177;51.520;6.764;2022-07-29T15:26:43;28.10;47.40
26503;DHT22;14177;51.520;6.764;2022-07-29T15:29:10;28.20;47.30
26503;DHT22;14177;51.520;6.764;2022-07-29T15:31:37;28.40;47.30
26503;DHT22;14177;51.520;6.764;2022-07-29T15:34:05;28.50;46.50
26503;DHT22;14177;51.520;6.764;2022-07-29T15:36:32;28.50;46.70
26503;DHT22;14177;51.520;6.764;2022-07-29T15:39:20;28.50;46.90
26503;DHT22;14177;51.520;6.764;2022-07-29T15:41:48;28.40;46.50
26503;DHT22;14177;51.520;6.764;2022-07-29T15:44:16;28.30;46.80
26503;DHT22;14177;51.520;6.764;2022-07-29T15:46:44;28.20;45.90
26503;DHT22;14177;51.520;6.764;2022-07-29T15:49:42;28.20;46.00
26503;DHT22;14177;51.520;6.764;2022-07-29T15:52:26;28.30;46.40
26503;DHT22;14177;51.520;6.764;2022-07-29T15:55:59;28.40;46.70
26503;DHT22;14177;51.520;6.764;2022-07-29T15:59:11;28.40;46.50
26503;DHT22;14177;51.520;6.764;2022-07-29T16:02:23;28.40;46.60
26503;DHT22;14177;51.520;6.764;2022-07-29T16:04:51;28.40;46.70
26503;DHT22;14177;51.520;6.764;2022-07-29T16:11:15;28.30;47.00
26503;DHT22;14177;51.520;6.764;2022-07-29T16:13:48;28.30;47.00
26503;DHT22;14177;51.520;6.764;2022-07-29T16:16:16;28.30;47.60
26503;DHT22;14177;51.520;6.764;2022-07-29T16:18:45;28.30;47.60
26503;DHT22;14177;51.520;6.764;2022-07-29T16:21:12;28.30;48.00
26503;DHT22;14177;51.520;6.764;2022-07-29T16:23:39;28.30;48.10
26503;DHT22;14177;51.520;6.764;2022-07-29T16:26:06;28.40;48.30
26503;DHT22;14177;51.520;6.764;2022-07-29T16:28:34;28.40;48.40
26503;DHT22;14177;51.520;6.764;2022-07-29T16:31:01;28.40;48.60
26503;DHT22;14177;51.520;6.764;2022-07-29T16:33:28;28.40;48.70
26503;DHT22;14177;51.520;6.764;2022-07-29T16:36:16;28.30;49.10
26503;DHT22;14177;51.520;6.764;2022-07-29T16:38:45;28.20;48.70
26503;DHT22;14177;51.520;6.764;2022-07-29T16:41:18;28.00;49.10